Time;durP1;ratioP1;P1;durP2;ratioP2;P2;SDS_P1;SDS_P2;PMS_P1;PMS_P2;Temp;Humidity;BMP_temperature;BMP_pressure;BME280_temperature;BME280_humidity;BME280_pressure;Samples;Min_cycle;Max_cycle;Signal;HPM_P1;HPM_P2
2021/01/14 06:01:57;;;;;;;5.50;3.70;;;0.80;97.30;;;;;;5469216;23;20896;-72
2021/01/14 06:04:24;;;;;;;4.83;3.87;;;0.80;97.30;;;;;;4917351;29;20476;-73
2021/01/14 06:06:52;;;;;;;5.83;4.53;;;0.80;97.30;;;;;;4917269;29;20432;-73
2021/01/14 06:09:19;;;;;;;7.30;3.93;;;0.80;97.30;;;;;;4917243;29;20915;-72
2021/01/14 06:11:46;;;;;;;8.30;4.57;;;0.90;97.30;;;;;;4905791;29;20516;-72
2021/01/14 06:14:24;;;;;;;5.70;4.33;;;0.90;97.30;;;;;;4898440;29;20919;-73
2021/01/14 06:16:51;;;;;;;7.50;4.57;;;0.90;97.30;;;;;;4898852;29;20433;-73
2021/01/14 06:19:17;;;;;;;9.23;5.47;;;0.90;97.30;;;;;;4898754;29;20425;-73
2021/01/14 06:21:48;;;;;;;7.23;4.90;;;0.90;97.30;;;;;;4897970;29;20445;-73
2021/01/14 06:24:27;;;;;;;6.47;4.50;;;0.90;97.30;;;;;;4899647;29;20453;-73
2021/01/14 06:26:57;;;;;;;6.63;5.00;;;0.90;97.30;;;;;;4900410;29;20839;-73
2021/01/14 06:29:28;;;;;;;7.27;4.63;;;0.90;97.30;;;;;;4898103;29;20950;-73
2021/01/14 06:32:08;;;;;;;7.43;4.80;;;0.90;97.30;;;;;;4898201;29;20455;-72
2021/01/14 06:34:35;;;;;;;8.43;4.90;;;0.90;97.30;;;;;;4898341;29;20418;-72
2021/01/14 06:37:08;;;;;;;8.43;5.07;;;0.90;97.30;;;;;;4899085;29;20424;-72
2021/01/14 06:39:42;;;;;;;7.70;5.07;;;0.90;97.30;;;;;;4898168;29;20488;-71
2021/01/14 06:42:28;;;;;;;8.83;5.07;;;0.90;97.30;;;;;;4897719;29;20954;-72
2021/01/14 06:44:55;;;;;;;7.77;4.70;;;0.90;97.30;;;;;;4897332;29;20432;-72
2021/01/14 06:47:45;;;;;;;7.50;5.50;;;0.90;97.30;;;;;;4897707;29;20429;-72
2021/01/14 06:50:14;;;;;;;8.67;5.20;;;1.00;97.30;;;;;;4898140;29;20842;-72
2021/01/14 06:53:08;;;;;;;10.37;5.50;;;1.00;97.30;;;;;;4899042;29;20500;-73
2021/01/14 06:55:36;;;;;;;10.13;5.43;;;1.00;97.30;;;;;;4898465;29;20425;-71
2021/01/14 06:58:19;;;;;;;6.43;4.83;;;1.00;97.30;;;;;;4898736;29;20553;-72
2021/01/14 07:00:50;;;;;;;7.87;5.27;;;1.00;97.30;;;;;;4897406;29;20453;-72
2021/01/14 07:03:24;;;;;;;10.80;5.30;;;1.00;97.30;;;;;;4898010;29;20541;-72
2021/01/14 07:05:53;;;;;;;11.50;5.60;;;1.00;97.30;;;;;;4897536;29;20421;-71
2021/01/14 07:08:31;;;;;;;6.90;4.70;;;1.00;97.30;;;;;;4897211;29;20798;-72
2021/01/14 07:11:19;;;;;;;8.93;5.10;;;1.00;97.30;;;;;;4898168;29;20444;-71
2021/01/14 07:13:46;;;;;;;9.27;5.43;;;1.00;97.30;;;;;;4896348;29;20417;-71
2021/01/14 07:16:16;;;;;;;9.80;4.77;;;1.10;97.30;;;;;;4897332;29;20491;-72
2021/01/14 07:18:45;;;;;;;9.30;5.47;;;1.10;97.30;;;;;;4897442;29;20420;-71
2021/01/14 07:21:34;;;;;;;9.27;4.87;;;1.10;97.30;;;;;;4898136;29;20441;-71
2021/01/14 07:24:18;;;;;;;7.97;4.77;;;1.10;97.30;;;;;;4897951;29;20510;-71
2021/01/14 07:26:56;;;;;;;7.30;4.70;;;1.10;97.30;;;;;;4898854;29;20427;-71
2021/01/14 07:29:26;;;;;;;8.00;4.70;;;1.20;97.30;;;;;;4897091;29;20418;-72
2021/01/14 07:31:54;;;;;;;8.90;5.37;;;1.20;97.30;;;;;;4897121;29;20452;-69
2021/01/14 07:34:39;;;;;;;7.97;4.80;;;1.20;97.30;;;;;;4897339;29;20425;-70
2021/01/14 07:37:13;;;;;;;8.80;4.00;;;1.20;97.30;;;;;;4897968;29;20503;-70
2021/01/14 07:39:56;;;;;;;7.73;4.33;;;1.20;97.30;;;;;;4898524;29;20473;-69
2021/01/14 07:42:33;;;;;;;6.17;4.30;;;1.20;97.30;;;;;;4896992;29;20451;-70
2021/01/14 07:45:06;;;;;;;7.17;3.90;;;1.20;97.30;;;;;;4897863;29;20505;-70
2021/01/14 07:47:37;;;;;;;6.07;3.40;;;1.30;97.30;;;;;;4897196;29;20426;-69
2021/01/14 07:50:20;;;;;;;7.60;3.70;;;1.30;97.30;;;;;;4896848;29;20417;-70
2021/01/14 07:52:47;;;;;;;4.90;3.33;;;1.30;97.30;;;;;;4896852;29;20421;-70
2021/01/14 07:55:24;;;;;;;5.43;4.00;;;1.40;97.30;;;;;;4897070;29;20422;-71
2021/01/14 07:58:03;;;;;;;4.60;3.53;;;1.40;97.30;;;;;;4896618;29;20935;-71
2021/01/14 08:00:30;;;;;;;5.53;3.33;;;1.40;97.30;;;;;;4897893;29;20421;-70
2021/01/14 08:03:14;;;;;;;5.40;3.47;;;1.40;97.30;;;;;;4897075;29;20814;-69
2021/01/14 08:06:02;;;;;;;8.20;4.33;;;1.40;97.30;;;;;;4896617;29;20946;-71
2021/01/14 08:08:38;;;;;;;6.50;4.30;;;1.40;97.30;;;;;;4896527;29;20570;-70
2021/01/14 08:11:09;;;;;;;5.70;3.70;;;1.40;97.30;;;;;;4897101;29;20437;-70
2021/01/14 08:14:03;;;;;;;7.40;4.43;;;1.40;97.30;;;;;;4898297;29;20412;-70
2021/01/14 08:16:39;;;;;;;8.03;4.90;;;1.40;97.30;;;;;;4897737;29;20872;-70
2021/01/14 08:19:17;;;;;;;7.80;4.57;;;1.50;97.30;;;;;;4897973;29;20475;-71
2021/01/14 08:21:47;;;;;;;7.67;4.60;;;1.50;97.30;;;;;;4896689;29;20436;-71
2021/01/14 08:24:32;;;;;;;9.27;4.37;;;1.50;97.30;;;;;;4897904;29;20467;-70
2021/01/14 08:27:05;;;;;;;7.33;4.23;;;1.50;97.30;;;;;;4902118;29;20427;-71
2021/01/14 08:29:43;;;;;;;9.90;4.37;;;1.50;97.30;;;;;;4900317;29;20416;-71
2021/01/14 08:32:38;;;;;;;7.13;3.87;;;1.50;97.30;;;;;;4900588;29;20445;-70
2021/01/14 08:35:09;;;;;;;5.70;3.50;;;1.60;97.30;;;;;;4901036;29;20413;-71
2021/01/14 08:37:44;;;;;;;6.90;3.63;;;1.60;97.30;;;;;;4899878;29;20437;-71
2021/01/14 08:40:13;;;;;;;5.90;4.10;;;1.60;97.30;;;;;;4901661;29;20464;-70
2021/01/14 08:42:44;;;;;;;5.87;4.00;;;1.60;97.30;;;;;;4901269;29;20464;-71
2021/01/14 08:45:16;;;;;;;8.60;3.90;;;1.60;97.30;;;;;;4900930;29;20409;-70
2021/01/14 08:47:56;;;;;;;9.17;4.20;;;1.60;97.30;;;;;;4900744;29;20433;-71
2021/01/14 08:50:38;;;;;;;5.73;3.83;;;1.60;97.30;;;;;;4916672;29;20445;-71
2021/01/14 08:53:18;;;;;;;7.27;4.50;;;1.60;97.30;;;;;;4899767;29;20421;-70
2021/01/14 08:55:51;;;;;;;9.83;4.67;;;1.60;97.30;;;;;;4898391;29;20419;-70
2021/01/14 08:58:18;;;;;;;8.33;4.60;;;1.50;97.30;;;;;;4897130;29;20492;-70
2021/01/14 09:00:48;;;;;;;8.33;4.50;;;1.60;97.30;;;;;;4899026;29;20459;-70
2021/01/14 09:03:14;;;;;;;5.83;3.90;;;1.60;97.30;;;;;;4900799;29;20465;-70
2021/01/14 09:05:45;;;;;;;10.27;4.17;;;1.60;97.30;;;;;;4899491;29;20796;-71
2021/01/14 09:08:12;;;;;;;5.93;4.20;;;1.70;97.30;;;;;;4898900;29;20418;-71
2021/01/14 09:10:42;;;;;;;7.03;4.40;;;1.70;97.30;;;;;;4898871;29;20456;-70
2021/01/14 09:13:13;;;;;;;8.07;4.30;;;1.80;97.30;;;;;;4900549;29;20423;-70
2021/01/14 09:15:39;;;;;;;8.60;4.93;;;1.80;97.30;;;;;;4900281;29;20421;-70
2021/01/14 09:18:05;;;;;;;6.33;4.00;;;1.90;97.30;;;;;;4900588;29;20458;-69
2021/01/14 09:20:31;;;;;;;7.40;3.87;;;2.00;97.30;;;;;;4902186;29;20184;-70
2021/01/14 09:23:20;;;;;;;8.40;4.13;;;2.00;97.30;;;;;;4901902;29;20555;-70
2021/01/14 09:25:54;;;;;;;10.13;3.67;;;1.90;97.30;;;;;;4901500;29;20465;-70
2021/01/14 09:28:21;;;;;;;7.60;3.73;;;1.90;97.30;;;;;;4897786;29;20428;-70
2021/01/14 09:30:53;;;;;;;4.93;3.63;;;2.00;97.30;;;;;;4899099;29;20442;-70
2021/01/14 09:33:28;;;;;;;7.13;3.67;;;1.90;97.30;;;;;;4899054;29;20430;-72
2021/01/14 09:35:58;;;;;;;6.87;3.73;;;1.90;97.30;;;;;;4898975;29;20464;-71
2021/01/14 09:38:25;;;;;;;7.80;3.63;;;1.90;97.30;;;;;;4901212;29;20980;-71
2021/01/14 09:40:52;;;;;;;7.63;3.43;;;2.00;97.30;;;;;;4945459;23;20436;-71
2021/01/14 09:43:19;;;;;;;5.47;3.33;;;2.00;97.30;;;;;;4898792;29;20475;-70
2021/01/14 09:45:47;;;;;;;9.10;3.83;;;2.10;97.30;;;;;;4898910;29;20488;-71
2021/01/14 09:48:14;;;;;;;8.23;3.50;;;2.20;97.30;;;;;;4898580;29;20506;-71
2021/01/14 09:50:50;;;;;;;10.90;4.00;;;2.20;97.30;;;;;;4899828;29;20815;-70
2021/01/14 09:53:17;;;;;;;9.50;3.60;;;2.20;97.30;;;;;;4896839;29;20496;-70
2021/01/14 09:55:43;;;;;;;4.47;2.97;;;2.10;97.30;;;;;;4887879;29;20426;-72
2021/01/14 09:58:18;;;;;;;6.53;3.50;;;2.10;97.30;;;;;;4890608;29;20402;-71
2021/01/14 10:00:51;;;;;;;5.63;3.50;;;2.10;97.30;;;;;;4886798;29;20445;-71
2021/01/14 10:03:21;;;;;;;7.00;3.60;;;2.10;97.30;;;;;;4890502;29;20869;-71
2021/01/14 10:05:50;;;;;;;9.23;3.50;;;2.00;97.30;;;;;;4881552;29;20398;-71
2021/01/14 10:08:21;;;;;;;6.70;3.90;;;2.10;97.30;;;;;;4879932;29;20426;-71
2021/01/14 10:10:47;;;;;;;9.07;3.40;;;2.20;97.30;;;;;;4879558;29;20497;-72
2021/01/14 10:13:53;;;;;;;7.43;3.03;;;2.40;97.30;;;;;;4882038;29;20406;-71
2021/01/14 10:16:20;;;;;;;5.77;3.07;;;2.60;97.30;;;;;;4880742;29;20871;-70
2021/01/14 10:18:45;;;;;;;4.90;3.13;;;2.70;97.30;;;;;;4880875;29;20832;-70
2021/01/14 10:21:14;;;;;;;6.57;3.40;;;2.70;97.30;;;;;;4879335;29;20438;-70
2021/01/14 10:23:40;;;;;;;6.37;3.30;;;2.60;97.30;;;;;;4881022;29;20226;-71
2021/01/14 10:26:05;;;;;;;4.57;2.80;;;2.60;97.30;;;;;;4881135;29;20419;-70
2021/01/14 10:28:44;;;;;;;6.13;3.23;;;2.50;97.30;;;;;;4879481;29;20434;-70
2021/01/14 10:31:09;;;;;;;4.80;3.27;;;2.50;97.30;;;;;;4879341;29;20198;-70
2021/01/14 10:33:35;;;;;;;12.07;3.53;;;2.60;97.30;;;;;;4879204;29;20518;-70
2021/01/14 10:36:01;;;;;;;7.57;3.10;;;2.70;97.30;;;;;;4879007;29;20313;-70
2021/01/14 10:38:27;;;;;;;6.97;3.00;;;2.60;97.30;;;;;;4879269;29;20430;-70
2021/01/14 10:40:54;;;;;;;7.50;2.97;;;2.60;97.30;;;;;;4879364;29;20252;-70
2021/01/14 10:43:37;;;;;;;4.30;2.80;;;2.60;97.30;;;;;;4910440;29;20240;-69
2021/01/14 10:46:04;;;;;;;8.10;3.93;;;2.60;97.30;;;;;;4875540;29;20959;-70
2021/01/14 10:48:39;;;;;;;6.13;3.57;;;2.60;97.30;;;;;;4877456;29;20423;-70
2021/01/14 10:51:06;;;;;;;11.27;3.40;;;2.70;97.30;;;;;;4878423;29;20988;-71
2021/01/14 10:53:33;;;;;;;5.33;3.10;;;2.70;97.30;;;;;;4879341;29;20423;-70
2021/01/14 10:56:13;;;;;;;7.13;3.80;;;2.80;97.30;;;;;;4878858;29;20451;-70
2021/01/14 10:58:41;;;;;;;5.27;3.93;;;2.90;97.30;;;;;;4888004;29;20469;-71
2021/01/14 11:01:16;;;;;;;13.60;4.07;;;2.90;97.30;;;;;;4876084;29;20457;-71
2021/01/14 11:03:42;;;;;;;6.90;4.60;;;2.90;97.30;;;;;;4877684;29;20999;-71
2021/01/14 11:06:08;;;;;;;6.33;3.63;;;2.90;97.30;;;;;;4871123;29;20431;-71
2021/01/14 11:08:42;;;;;;;4.17;3.33;;;2.90;97.30;;;;;;4880240;29;20446;-70
2021/01/14 11:11:09;;;;;;;5.30;3.83;;;2.90;97.30;;;;;;4878660;29;20204;-71
2021/01/14 11:13:39;;;;;;;7.63;4.50;;;2.80;97.30;;;;;;4878882;29;20846;-71
2021/01/14 11:16:06;;;;;;;7.40;4.23;;;2.80;97.30;;;;;;4879109;29;20437;-70
2021/01/14 11:18:35;;;;;;;11.60;4.60;;;2.80;97.30;;;;;;4878748;29;20787;-70
2021/01/14 11:21:01;;;;;;;7.90;4.23;;;2.80;97.30;;;;;;4879549;29;20457;-70
2021/01/14 11:23:27;;;;;;;6.30;4.43;;;2.70;97.30;;;;;;4878452;29;20474;-70
2021/01/14 11:25:53;;;;;;;6.10;4.03;;;2.60;97.30;;;;;;4878674;29;20230;-70
2021/01/14 11:28:18;;;;;;;10.37;4.53;;;2.60;97.30;;;;;;4878214;29;20189;-70
2021/01/14 11:30:44;;;;;;;12.47;4.50;;;2.60;97.30;;;;;;4878587;29;20197;-70
2021/01/14 11:33:10;;;;;;;9.40;4.83;;;2.60;97.30;;;;;;4878620;29;20190;-70
2021/01/14 11:35:35;;;;;;;11.80;4.93;;;2.50;97.30;;;;;;4878319;29;20213;-70
2021/01/14 11:38:01;;;;;;;6.73;4.27;;;2.50;97.30;;;;;;4878596;29;20185;-70
2021/01/14 11:40:27;;;;;;;7.30;3.93;;;2.50;97.30;;;;;;4875767;29;20194;-70
2021/01/14 11:42:56;;;;;;;7.03;4.37;;;2.50;97.30;;;;;;4873086;29;20213;-70
2021/01/14 11:45:22;;;;;;;9.00;4.53;;;2.50;97.30;;;;;;4873201;29;20416;-70
2021/01/14 11:47:48;;;;;;;16.60;5.57;;;2.50;97.30;;;;;;4880400;29;20781;-70
2021/01/14 11:50:14;;;;;;;6.80;4.57;;;2.40;97.30;;;;;;4879036;29;20501;-70
2021/01/14 11:52:39;;;;;;;8.23;5.10;;;2.40;97.30;;;;;;4867548;29;20246;-70
2021/01/14 11:55:09;;;;;;;10.00;5.27;;;2.40;97.30;;;;;;4867245;29;20483;-69
2021/01/14 11:57:36;;;;;;;18.50;7.90;;;2.40;97.30;;;;;;4879524;29;20425;-70
2021/01/14 12:00:07;;;;;;;8.60;5.00;;;2.30;97.30;;;;;;4872027;29;20414;-70
2021/01/14 12:02:33;;;;;;;11.23;5.27;;;2.20;97.30;;;;;;4859446;29;20454;-70
2021/01/14 12:04:59;;;;;;;14.03;5.30;;;2.20;97.30;;;;;;4859204;29;20415;-70
2021/01/14 12:07:25;;;;;;;8.10;5.03;;;2.20;97.30;;;;;;4866710;29;20194;-69
2021/01/14 12:09:51;;;;;;;15.77;8.43;;;2.20;97.30;;;;;;4894529;29;20178;-69
2021/01/14 12:12:17;;;;;;;11.60;5.60;;;2.20;97.30;;;;;;4899437;29;20425;-69
2021/01/14 12:14:42;;;;;;;15.40;7.73;;;2.20;97.30;;;;;;4899416;29;20203;-69
2021/01/14 12:17:08;;;;;;;14.10;7.27;;;2.20;97.30;;;;;;4898804;29;20177;-69
2021/01/14 12:19:34;;;;;;;12.30;6.40;;;2.10;97.30;;;;;;4897393;29;20193;-69
2021/01/14 12:22:04;;;;;;;20.83;13.03;;;2.10;97.30;;;;;;4897008;29;20262;-70
2021/01/14 12:24:30;;;;;;;18.70;12.43;;;2.10;97.30;;;;;;4897110;29;20220;-70
2021/01/14 12:26:55;;;;;;;14.63;6.90;;;2.10;97.30;;;;;;4897689;29;20413;-70
2021/01/14 12:29:21;;;;;;;12.33;6.00;;;2.10;97.30;;;;;;4896480;29;20991;-69
2021/01/14 12:31:47;;;;;;;11.00;6.83;;;2.10;97.30;;;;;;4897640;29;20289;-69
2021/01/14 12:34:13;;;;;;;13.10;6.20;;;2.00;97.30;;;;;;4896304;29;20185;-69
2021/01/14 12:36:38;;;;;;;14.17;6.47;;;2.00;97.30;;;;;;4896480;29;20190;-69
2021/01/14 12:39:04;;;;;;;14.07;6.73;;;2.00;97.30;;;;;;4896472;29;20191;-69
2021/01/14 12:41:34;;;;;;;12.40;7.20;;;2.00;97.30;;;;;;4897380;29;20221;-70
2021/01/14 12:44:01;;;;;;;139.00;45.37;;;2.00;97.30;;;;;;4897619;29;20659;-70
2021/01/14 12:46:34;;;;;;;22.23;11.00;;;2.00;97.30;;;;;;4886747;29;20424;-69
2021/01/14 12:48:59;;;;;;;21.63;9.53;;;2.00;97.30;;;;;;4873796;29;20433;-70
2021/01/14 12:51:26;;;;;;;11.40;6.80;;;2.10;97.30;;;;;;4867162;29;20435;-70
2021/01/14 12:53:52;;;;;;;15.27;6.40;;;2.00;97.30;;;;;;4883349;29;20185;-70
2021/01/14 12:56:17;;;;;;;12.50;6.70;;;2.10;97.30;;;;;;4888359;29;20430;-70
2021/01/14 12:58:43;;;;;;;12.53;6.47;;;2.10;97.30;;;;;;4886356;29;20184;-69
2021/01/14 13:01:09;;;;;;;16.60;8.10;;;2.10;97.30;;;;;;4890073;29;20199;-70
2021/01/14 13:03:36;;;;;;;14.40;8.60;;;2.10;97.30;;;;;;4885711;29;20664;-71
2021/01/14 13:06:02;;;;;;;22.13;11.00;;;2.20;97.30;;;;;;4888289;29;20225;-71
2021/01/14 13:08:27;;;;;;;12.00;6.20;;;2.20;97.30;;;;;;4910169;29;20418;-71
2021/01/14 13:10:53;;;;;;;11.63;5.90;;;2.20;97.30;;;;;;4888914;29;20198;-70
2021/01/14 13:13:19;;;;;;;15.33;7.20;;;2.30;97.30;;;;;;4888757;29;20221;-70
2021/01/14 13:15:45;;;;;;;12.63;6.97;;;2.40;97.30;;;;;;4890842;29;20181;-71
2021/01/14 13:18:10;;;;;;;13.40;7.80;;;2.40;97.30;;;;;;4891804;29;20655;-70
2021/01/14 13:20:36;;;;;;;12.83;6.57;;;2.40;97.30;;;;;;4891246;29;20448;-69
2021/01/14 13:23:02;;;;;;;13.77;6.00;;;2.40;97.30;;;;;;4897507;29;20296;-69
2021/01/14 13:25:27;;;;;;;14.33;6.87;;;2.40;97.30;;;;;;4899350;29;20205;-69
2021/01/14 13:27:53;;;;;;;14.70;7.03;;;2.40;97.30;;;;;;4899891;29;20169;-69
2021/01/14 13:30:19;;;;;;;15.87;7.00;;;2.40;97.30;;;;;;4900357;29;20173;-69
2021/01/14 13:32:44;;;;;;;12.10;6.50;;;2.40;97.30;;;;;;4900666;29;20184;-69
2021/01/14 13:35:11;;;;;;;15.20;6.17;;;2.40;97.30;;;;;;4900121;29;20461;-68
2021/01/14 13:37:36;;;;;;;11.57;6.40;;;2.40;97.30;;;;;;4888434;29;20192;-69
2021/01/14 13:40:09;;;;;;;12.60;5.63;;;2.40;97.30;;;;;;4880122;29;20427;-69
2021/01/14 13:42:35;;;;;;;11.60;6.07;;;2.50;97.30;;;;;;4877215;29;20474;-69
2021/01/14 13:45:05;;;;;;;12.63;6.37;;;2.50;97.30;;;;;;4879297;29;20541;-70
2021/01/14 13:47:31;;;;;;;16.80;7.17;;;2.50;97.30;;;;;;4879497;29;20477;-70
2021/01/14 13:49:57;;;;;;;9.90;6.13;;;2.60;97.30;;;;;;4880177;29;20541;-69
2021/01/14 13:52:23;;;;;;;14.00;6.80;;;2.60;97.30;;;;;;4878663;29;20594;-69
2021/01/14 13:54:49;;;;;;;11.20;6.20;;;2.60;97.30;;;;;;4881219;29;20241;-69
2021/01/14 13:57:20;;;;;;;12.03;6.30;;;2.60;97.30;;;;;;4883647;29;20174;-69
2021/01/14 13:59:49;;;;;;;13.13;7.10;;;2.60;97.30;;;;;;4898869;29;20180;-70
2021/01/14 14:02:16;;;;;;;10.53;6.03;;;2.60;97.30;;;;;;4898898;29;20438;-70
2021/01/14 14:04:41;;;;;;;11.30;6.70;;;2.60;97.30;;;;;;4898161;29;20508;-69
2021/01/14 14:07:09;;;;;;;13.33;6.77;;;2.70;97.30;;;;;;4880955;29;20521;-72
2021/01/14 14:09:38;;;;;;;19.73;7.47;;;2.70;97.30;;;;;;4878912;29;20181;-70
2021/01/14 14:12:08;;;;;;;14.83;6.53;;;2.70;97.30;;;;;;4881176;29;20439;-70
2021/01/14 14:14:37;;;;;;;15.87;6.40;;;2.70;97.30;;;;;;4880021;29;20530;-69
2021/01/14 14:17:03;;;;;;;13.80;6.40;;;2.80;97.30;;;;;;4879603;29;20475;-69
2021/01/14 14:19:29;;;;;;;18.60;6.80;;;2.80;97.30;;;;;;4880813;29;20427;-68
2021/01/14 14:21:54;;;;;;;12.73;6.60;;;2.80;97.30;;;;;;4879455;29;20210;-68
2021/01/14 14:24:20;;;;;;;11.40;6.80;;;2.70;97.30;;;;;;4880886;29;20209;-68
2021/01/14 14:26:46;;;;;;;13.10;6.40;;;2.70;97.30;;;;;;4880518;29;20300;-68
2021/01/14 14:29:11;;;;;;;14.67;6.80;;;2.70;97.30;;;;;;4879330;29;20174;-68
2021/01/14 14:31:41;;;;;;;10.77;6.23;;;2.70;97.30;;;;;;4880578;29;20200;-69
2021/01/14 14:34:11;;;;;;;15.33;7.20;;;2.70;97.30;;;;;;4879443;29;20190;-68
2021/01/14 14:36:40;;;;;;;13.67;7.20;;;2.70;97.30;;;;;;4879843;29;20434;-69
2021/01/14 14:39:06;;;;;;;13.57;7.20;;;2.70;97.30;;;;;;4880577;29;20421;-68
2021/01/14 14:41:32;;;;;;;13.30;6.83;;;2.70;97.30;;;;;;4878745;29;20545;-69
2021/01/14 14:43:58;;;;;;;12.57;6.47;;;2.70;97.30;;;;;;4880341;29;20201;-68
2021/01/14 14:46:25;;;;;;;15.17;7.07;;;2.70;97.30;;;;;;4879513;29;20422;-69
2021/01/14 14:48:52;;;;;;;10.37;6.30;;;2.60;97.30;;;;;;4878807;29;20436;-68
2021/01/14 14:51:22;;;;;;;13.27;7.13;;;2.60;97.30;;;;;;4880385;29;21004;-69
2021/01/14 14:53:48;;;;;;;12.50;6.63;;;2.50;97.30;;;;;;4880585;29;20418;-68
2021/01/14 14:56:16;;;;;;;12.17;6.80;;;2.40;97.30;;;;;;4880377;29;20425;-69
2021/01/14 14:58:42;;;;;;;16.33;7.37;;;2.40;97.30;;;;;;4880269;29;20182;-68
2021/01/14 15:01:09;;;;;;;13.27;7.77;;;2.40;97.30;;;;;;4879326;29;20457;-68
2021/01/14 15:03:36;;;;;;;14.83;7.50;;;2.30;97.30;;;;;;4878625;29;20555;-68
2021/01/14 15:06:02;;;;;;;14.50;6.77;;;2.30;97.30;;;;;;4879179;29;20425;-67
2021/01/14 15:08:28;;;;;;;13.20;8.07;;;2.30;97.30;;;;;;4880104;29;20926;-68
2021/01/14 15:10:55;;;;;;;19.40;8.00;;;2.20;97.30;;;;;;4879707;29;20441;-68
2021/01/14 15:13:22;;;;;;;12.17;7.60;;;2.20;97.30;;;;;;4878755;29;20193;-68
2021/01/14 15:15:48;;;;;;;18.60;7.07;;;2.20;97.30;;;;;;4878992;29;20474;-68
2021/01/14 15:18:14;;;;;;;14.60;7.90;;;2.20;97.30;;;;;;4878763;29;20410;-68
2021/01/14 15:20:40;;;;;;;17.43;8.90;;;2.10;97.30;;;;;;4879660;29;20438;-68
2021/01/14 15:23:06;;;;;;;14.27;7.37;;;2.00;97.30;;;;;;4878186;29;20220;-68
2021/01/14 15:25:31;;;;;;;14.43;8.00;;;2.00;97.30;;;;;;4877892;29;20174;-68
2021/01/14 15:27:57;;;;;;;18.17;8.80;;;2.00;97.30;;;;;;4877527;29;20450;-68
2021/01/14 15:30:24;;;;;;;16.80;7.50;;;2.00;97.30;;;;;;4878023;29;20178;-69
2021/01/14 15:32:50;;;;;;;17.17;8.13;;;1.90;97.30;;;;;;4878695;29;20482;-69
2021/01/14 15:35:20;;;;;;;12.60;7.70;;;1.90;97.30;;;;;;4877075;29;20434;-68
2021/01/14 15:38:01;;;;;;;16.97;8.20;;;1.90;97.30;;;;;;4878905;29;20451;-68
2021/01/14 15:40:27;;;;;;;15.40;7.70;;;1.80;97.30;;;;;;4879516;29;20492;-68
2021/01/14 15:43:08;;;;;;;18.47;9.00;;;1.80;97.30;;;;;;4877595;29;20478;-68
2021/01/14 15:45:34;;;;;;;45.60;19.70;;;1.70;97.30;;;;;;4878217;29;20178;-69
2021/01/14 15:48:00;;;;;;;22.47;9.07;;;1.60;97.30;;;;;;4879426;29;20414;-69
2021/01/14 15:50:25;;;;;;;14.90;7.40;;;1.60;97.30;;;;;;4879469;29;20174;-69
2021/01/14 15:52:51;;;;;;;14.73;7.83;;;1.50;97.30;;;;;;4877926;29;20190;-69
2021/01/14 15:55:20;;;;;;;22.13;8.40;;;1.50;97.30;;;;;;4874128;29;20672;-70
2021/01/14 15:57:46;;;;;;;16.53;8.60;;;1.40;97.30;;;;;;4876706;29;20225;-72
2021/01/14 16:00:12;;;;;;;45.67;19.70;;;1.30;97.30;;;;;;4877304;29;20465;-70
2021/01/14 16:02:39;;;;;;;37.40;16.10;;;1.30;97.30;;;;;;4877449;29;20350;-69
2021/01/14 16:05:05;;;;;;;18.20;10.23;;;1.20;97.30;;;;;;4879209;29;20419;-70
2021/01/14 16:07:32;;;;;;;48.37;20.20;;;1.20;97.30;;;;;;4877541;29;20474;-72
2021/01/14 16:09:58;;;;;;;37.40;14.77;;;1.20;97.30;;;;;;4874781;29;20430;-70
2021/01/14 16:12:29;;;;;;;45.87;17.00;;;1.20;97.30;;;;;;4874280;29;21217;-70
2021/01/14 16:14:54;;;;;;;29.83;13.30;;;1.20;97.30;;;;;;4877649;29;20186;-70
2021/01/14 16:17:20;;;;;;;19.03;9.27;;;1.10;97.30;;;;;;4877192;29;20865;-68
2021/01/14 16:19:46;;;;;;;25.13;9.50;;;1.10;97.30;;;;;;4878798;29;20185;-70
2021/01/14 16:22:12;;;;;;;25.43;12.00;;;1.10;97.30;;;;;;4879090;29;20698;-69
2021/01/14 16:24:38;;;;;;;27.80;10.20;;;1.10;97.30;;;;;;4876705;29;20206;-72
2021/01/14 16:27:06;;;;;;;16.47;10.13;;;1.00;97.30;;;;;;4877665;29;20797;-70
2021/01/14 16:29:32;;;;;;;25.57;9.43;;;1.00;97.30;;;;;;4878158;29;20795;-68
2021/01/14 16:32:00;;;;;;;70.57;26.63;;;1.00;97.30;;;;;;4878858;29;20471;-67
2021/01/14 16:34:27;;;;;;;76.33;29.30;;;0.90;97.30;;;;;;4876621;29;20427;-70
2021/01/14 16:36:58;;;;;;;22.17;10.90;;;0.90;97.30;;;;;;4879652;29;20474;-70
2021/01/14 16:39:25;;;;;;;28.43;12.13;;;0.90;97.30;;;;;;4877352;29;20421;-72
2021/01/14 16:41:56;;;;;;;32.37;14.17;;;0.90;97.30;;;;;;4878110;29;20466;-72
2021/01/14 16:44:22;;;;;;;30.10;14.23;;;0.90;97.30;;;;;;4878335;29;20553;-72
2021/01/14 16:46:49;;;;;;;17.70;8.90;;;0.90;97.30;;;;;;4880834;29;20422;-72
2021/01/14 16:49:15;;;;;;;19.33;9.00;;;0.90;97.30;;;;;;4880447;29;20421;-71
2021/01/14 16:51:41;;;;;;;17.83;9.40;;;0.80;97.30;;;;;;4881900;29;20502;-69
2021/01/14 16:54:07;;;;;;;21.23;9.60;;;0.80;97.30;;;;;;4881474;29;20507;-69
2021/01/14 16:56:33;;;;;;;16.97;7.93;;;0.80;97.30;;;;;;4882299;29;20613;-70
2021/01/14 16:58:58;;;;;;;17.20;9.03;;;0.80;97.30;;;;;;4897996;29;20512;-70
2021/01/14 17:01:26;;;;;;;18.50;9.00;;;0.80;97.30;;;;;;4899443;29;20207;-70
2021/01/14 17:03:53;;;;;;;16.03;8.87;;;0.80;97.30;;;;;;4900923;29;20704;-70
2021/01/14 17:06:21;;;;;;;15.90;7.80;;;0.90;97.30;;;;;;4899670;29;20518;-69
2021/01/14 17:08:47;;;;;;;19.23;8.70;;;0.90;97.30;;;;;;4900555;29;20425;-70
2021/01/14 17:11:15;;;;;;;34.93;13.73;;;0.80;97.30;;;;;;4900574;29;20437;-71
2021/01/14 17:13:42;;;;;;;18.50;9.60;;;0.80;97.30;;;;;;4900602;29;20425;-71
2021/01/14 17:16:09;;;;;;;50.73;18.63;;;0.80;97.30;;;;;;4899515;29;20427;-70
2021/01/14 17:18:36;;;;;;;96.20;40.47;;;0.70;97.30;;;;;;4899299;29;20414;-71
2021/01/14 17:21:02;;;;;;;20.90;9.77;;;0.70;97.30;;;;;;4899231;29;20449;-69
2021/01/14 17:23:28;;;;;;;15.17;8.00;;;0.70;97.30;;;;;;4899303;29;20480;-71
2021/01/14 17:25:58;;;;;;;15.27;8.00;;;0.60;97.30;;;;;;4900379;29;20410;-71
2021/01/14 17:28:25;;;;;;;18.60;7.73;;;0.60;97.30;;;;;;4898994;29;20181;-71
2021/01/14 17:30:51;;;;;;;17.83;9.93;;;0.60;97.30;;;;;;4900614;29;20443;-70
2021/01/14 17:33:16;;;;;;;15.40;8.43;;;0.50;97.30;;;;;;4900449;29;20418;-70
2021/01/14 17:35:42;;;;;;;26.63;12.80;;;0.50;97.30;;;;;;4900261;29;20413;-72
2021/01/14 17:38:08;;;;;;;20.00;10.10;;;0.50;97.30;;;;;;4900621;29;20199;-70
2021/01/14 17:40:36;;;;;;;18.37;9.10;;;0.50;97.30;;;;;;4899953;29;20933;-71
2021/01/14 17:43:06;;;;;;;69.43;34.20;;;0.50;97.30;;;;;;4899159;29;20276;-70
2021/01/14 17:45:32;;;;;;;19.50;9.73;;;0.40;97.30;;;;;;4899407;29;20461;-70
2021/01/14 17:47:58;;;;;;;20.37;10.20;;;0.40;97.30;;;;;;4898775;29;20424;-72
2021/01/14 17:50:25;;;;;;;20.27;10.43;;;0.40;97.30;;;;;;4900023;29;20448;-70
2021/01/14 17:52:51;;;;;;;20.50;10.77;;;0.40;97.30;;;;;;4899262;29;20425;-71
2021/01/14 17:55:17;;;;;;;28.77;13.60;;;0.40;97.30;;;;;;4898812;29;20512;-72
2021/01/14 17:57:43;;;;;;;36.20;18.60;;;0.50;97.30;;;;;;4891602;29;20182;-70
2021/01/14 18:00:16;;;;;;;23.77;11.10;;;0.50;97.30;;;;;;4881626;29;20189;-70
2021/01/14 18:02:42;;;;;;;22.27;11.03;;;0.60;97.30;;;;;;4881341;29;20214;-70
2021/01/14 18:05:10;;;;;;;20.70;8.40;;;0.60;97.30;;;;;;4880061;29;20430;-71
2021/01/14 18:07:39;;;;;;;17.73;9.20;;;0.60;97.30;;;;;;4879851;29;20422;-71
2021/01/14 18:10:07;;;;;;;16.83;8.30;;;0.60;97.30;;;;;;4880083;29;20847;-71
2021/01/14 18:12:34;;;;;;;18.37;8.97;;;0.60;97.30;;;;;;4879696;29;20450;-71
2021/01/14 18:15:00;;;;;;;20.00;9.47;;;0.60;97.30;;;;;;4881207;29;20900;-70
2021/01/14 18:17:29;;;;;;;20.37;11.07;;;0.60;97.30;;;;;;4879889;29;20535;-70
2021/01/14 18:19:58;;;;;;;15.87;8.60;;;0.70;97.30;;;;;;4879641;29;20925;-71
2021/01/14 18:22:25;;;;;;;20.63;11.10;;;0.70;97.30;;;;;;4880684;29;20445;-71
2021/01/14 18:24:50;;;;;;;27.03;14.07;;;0.70;97.30;;;;;;4881077;29;20867;-71
2021/01/14 18:27:16;;;;;;;56.53;27.00;;;0.70;97.30;;;;;;4880554;29;20422;-71
2021/01/14 18:29:42;;;;;;;29.77;14.20;;;0.80;97.30;;;;;;4881023;29;20194;-74
2021/01/14 18:32:09;;;;;;;16.10;8.70;;;0.80;97.30;;;;;;4881360;29;20205;-73
2021/01/14 18:34:35;;;;;;;16.17;8.03;;;0.80;97.30;;;;;;4879252;29;20450;-71
2021/01/14 18:37:01;;;;;;;20.77;13.00;;;0.80;97.30;;;;;;4880254;29;20418;-71
2021/01/14 18:39:26;;;;;;;15.80;9.03;;;0.80;97.30;;;;;;4879555;29;20517;-71
2021/01/14 18:41:52;;;;;;;13.80;7.97;;;0.80;97.30;;;;;;4880297;29;20219;-71
2021/01/14 18:44:19;;;;;;;18.20;8.97;;;0.80;97.30;;;;;;4879176;29;20308;-71
2021/01/14 18:46:46;;;;;;;16.67;8.70;;;0.80;97.30;;;;;;4890396;29;20182;-71
2021/01/14 18:49:12;;;;;;;15.10;8.50;;;0.80;97.30;;;;;;4897712;29;20418;-72
2021/01/14 18:51:38;;;;;;;17.00;8.60;;;0.80;97.30;;;;;;4892428;29;20441;-72
2021/01/14 18:54:04;;;;;;;20.10;9.23;;;0.80;97.30;;;;;;4879426;29;20487;-71
2021/01/14 18:56:30;;;;;;;18.97;8.83;;;0.90;97.30;;;;;;4880171;29;20189;-71
2021/01/14 18:58:55;;;;;;;17.37;8.17;;;0.90;97.30;;;;;;4880258;29;20450;-71
2021/01/14 19:01:23;;;;;;;105.80;32.03;;;0.90;97.30;;;;;;4880320;29;20284;-71